createdAt,value
2019-03-27T00:00:38.364Z,7.80
2019-03-27T00:01:38.349Z,7.60
2019-03-27T00:02:38.376Z,8.10
2019-03-27T00:03:38.333Z,7.00
2019-03-27T00:04:38.315Z,7.30
2019-03-27T00:05:38.304Z,8.50
2019-03-27T00:06:38.294Z,6.60
2019-03-27T00:07:38.279Z,8.60
2019-03-27T00:08:38.295Z,6.80
2019-03-27T00:09:38.257Z,8.30
2019-03-27T00:10:38.249Z,9.50
2019-03-27T00:11:38.248Z,8.10
2019-03-27T00:12:38.225Z,8.90
2019-03-27T00:13:38.241Z,8.10
2019-03-27T00:14:38.199Z,9.10
2019-03-27T00:15:38.197Z,9.30
2019-03-27T00:16:38.184Z,9.10
2019-03-27T00:17:38.174Z,9.30
2019-03-27T00:18:38.179Z,10.30
2019-03-27T00:19:38.170Z,8.40
2019-03-27T00:20:38.145Z,10.50
2019-03-27T00:21:38.122Z,11.10
2019-03-27T00:22:38.121Z,12.50
2019-03-27T00:23:38.117Z,10.10
2019-03-27T00:24:38.123Z,10.90
2019-03-27T00:25:38.099Z,11.80
2019-03-27T00:26:38.072Z,11.10
2019-03-27T00:27:38.064Z,12.20
2019-03-27T00:28:38.062Z,12.40
2019-03-27T00:29:38.069Z,11.00
2019-03-27T00:30:38.038Z,10.90
2019-03-27T00:31:38.019Z,10.00
2019-03-27T00:32:38.010Z,10.20
2019-03-27T00:33:37.990Z,9.70
2019-03-27T00:34:37.986Z,10.10
2019-03-27T00:35:37.999Z,9.80
2019-03-27T00:36:37.978Z,10.50
2019-03-27T00:37:37.947Z,12.20
2019-03-27T00:38:37.944Z,9.80
2019-03-27T00:39:37.956Z,10.00
2019-03-27T00:40:37.958Z,9.90
2019-03-27T00:41:37.906Z,8.70
2019-03-27T00:42:37.890Z,9.20
2019-03-27T00:43:37.880Z,10.50
2019-03-27T00:44:37.872Z,8.90
2019-03-27T00:45:37.880Z,11.10
2019-03-27T00:46:37.883Z,9.50
2019-03-27T00:47:37.843Z,11.00
2019-03-27T00:48:37.833Z,10.10
2019-03-27T00:49:37.812Z,8.00
2019-03-27T00:50:37.805Z,9.30
2019-03-27T00:51:37.826Z,9.10
2019-03-27T00:52:37.807Z,9.30
2019-03-27T00:53:37.773Z,11.30
2019-03-27T00:54:37.765Z,10.00
2019-03-27T00:55:37.757Z,10.10
2019-03-27T00:56:37.771Z,10.30
2019-03-27T00:57:37.757Z,11.00
2019-03-27T00:58:37.721Z,9.50
2019-03-27T00:59:37.703Z,9.80
2019-03-27T01:00:37.698Z,10.00
2019-03-27T01:01:37.690Z,9.90
2019-03-27T01:02:37.710Z,10.30
2019-03-27T01:03:37.667Z,9.20
2019-03-27T01:04:37.656Z,9.10
2019-03-27T01:05:37.646Z,9.30
2019-03-27T01:06:37.626Z,10.50
2019-03-27T01:07:37.624Z,12.80
2019-03-27T01:08:37.635Z,9.70
2019-03-27T01:09:37.598Z,13.10
2019-03-27T01:10:37.583Z,12.40
2019-03-27T01:11:37.587Z,13.20
2019-03-27T01:12:37.564Z,12.00
2019-03-27T01:13:37.583Z,11.10
2019-03-27T01:14:37.545Z,11.20
2019-03-27T01:15:40.055Z,10.90
2019-03-27T01:16:37.517Z,14.20
2019-03-27T01:17:37.514Z,13.90
2019-03-27T01:18:37.502Z,13.10
2019-03-27T01:19:37.528Z,13.90
2019-03-27T01:20:37.486Z,14.20
2019-03-27T01:21:37.475Z,12.00
2019-03-27T01:22:37.458Z,14.50
2019-03-27T01:23:37.445Z,13.20
2019-03-27T01:24:37.469Z,15.60
2019-03-27T01:25:37.433Z,12.80
2019-03-27T01:26:37.410Z,14.50
2019-03-27T01:27:37.418Z,14.30
2019-03-27T01:28:37.387Z,14.30
2019-03-27T01:29:37.409Z,14.40
2019-03-27T01:30:37.412Z,14.60
2019-03-27T01:31:37.351Z,13.80
2019-03-27T01:32:37.347Z,15.60
2019-03-27T01:33:37.341Z,16.00
2019-03-27T01:34:37.326Z,11.20
2019-03-27T01:35:37.366Z,15.20
2019-03-27T01:36:37.299Z,13.40
2019-03-27T01:37:37.294Z,16.50
2019-03-27T01:38:37.274Z,13.80
2019-03-27T01:39:37.284Z,15.50
2019-03-27T01:40:37.302Z,13.10
2019-03-27T01:41:37.242Z,14.20
2019-03-27T01:42:37.275Z,13.30
2019-03-27T01:43:37.228Z,15.50
2019-03-27T01:44:37.211Z,14.40
2019-03-27T01:45:37.200Z,14.10
2019-03-27T01:46:37.226Z,12.80
2019-03-27T01:47:37.176Z,14.50
2019-03-27T01:48:37.193Z,16.40
2019-03-27T01:49:37.176Z,14.40
2019-03-27T01:50:37.156Z,13.60
2019-03-27T01:51:37.173Z,15.50
2019-03-27T01:52:37.170Z,13.40
2019-03-27T01:53:37.120Z,12.50
2019-03-27T01:54:37.134Z,12.90
2019-03-27T01:55:37.113Z,12.80
2019-03-27T01:56:37.154Z,14.00
2019-03-27T01:57:37.096Z,12.70
2019-03-27T01:58:37.059Z,14.00
2019-03-27T01:59:37.043Z,14.30
2019-03-27T02:00:37.085Z,13.00
2019-03-27T02:01:37.072Z,13.60
2019-03-27T02:02:37.038Z,15.00
2019-03-27T02:03:37.004Z,14.60
2019-03-27T02:04:37.014Z,13.80
2019-03-27T02:05:37.093Z,12.90
2019-03-27T02:06:37.017Z,15.50
2019-03-27T02:07:37.018Z,14.20
2019-03-27T02:08:37.022Z,11.90
2019-03-27T02:09:36.940Z,13.80
2019-03-27T02:10:36.928Z,13.90
2019-03-27T02:11:36.917Z,14.70
2019-03-27T02:12:36.915Z,14.50
2019-03-27T02:13:36.935Z,13.70
2019-03-27T02:14:36.912Z,16.10
2019-03-27T02:15:36.888Z,13.40
2019-03-27T02:16:36.881Z,15.70
2019-03-27T02:17:36.848Z,14.40
2019-03-27T02:18:36.893Z,14.20
2019-03-27T02:19:36.823Z,12.90
2019-03-27T02:20:36.810Z,15.40
2019-03-27T02:21:36.848Z,14.80
2019-03-27T02:22:36.818Z,14.00
2019-03-27T02:23:36.835Z,14.90
2019-03-27T02:24:36.823Z,13.90
2019-03-27T02:25:36.783Z,14.30
2019-03-27T02:26:36.788Z,15.70
2019-03-27T02:27:36.770Z,14.30
2019-03-27T02:28:36.754Z,15.60
2019-03-27T02:29:36.769Z,14.40
2019-03-27T02:30:36.727Z,13.70
2019-03-27T02:31:36.702Z,16.10
2019-03-27T02:32:36.686Z,13.90
2019-03-27T02:33:36.668Z,14.50
2019-03-27T02:34:36.706Z,15.50
2019-03-27T02:35:36.660Z,15.10
2019-03-27T02:36:36.635Z,14.70
2019-03-27T02:37:36.626Z,13.60
2019-03-27T02:38:36.625Z,15.20
2019-03-27T02:39:36.613Z,15.50
2019-03-27T02:40:36.620Z,15.20
2019-03-27T02:41:36.603Z,11.20
2019-03-27T02:42:36.567Z,14.90
2019-03-27T02:43:36.563Z,14.70
2019-03-27T02:44:36.552Z,15.00
2019-03-27T02:45:36.587Z,14.80
2019-03-27T02:46:36.533Z,14.40
2019-03-27T02:47:36.519Z,14.80
2019-03-27T02:48:36.508Z,14.00
2019-03-27T02:49:36.496Z,12.40
2019-03-27T02:50:36.482Z,15.20
2019-03-27T02:51:36.487Z,12.10
2019-03-27T02:52:36.480Z,13.00
2019-03-27T02:53:36.449Z,13.30
2019-03-27T02:54:36.445Z,14.70
2019-03-27T02:55:36.432Z,12.10
2019-03-27T02:56:36.444Z,13.00
2019-03-27T02:57:36.417Z,13.30
2019-03-27T02:58:36.398Z,12.80
2019-03-27T02:59:37.089Z,12.90
2019-03-27T03:00:36.396Z,11.30
2019-03-27T03:01:36.379Z,10.70
2019-03-27T03:02:36.397Z,11.80
2019-03-27T03:03:36.344Z,9.80
2019-03-27T03:04:36.330Z,12.60
2019-03-27T03:05:36.324Z,12.60
2019-03-27T03:06:36.324Z,15.20
2019-03-27T03:07:36.329Z,11.50
2019-03-27T03:08:36.292Z,12.90
2019-03-27T03:09:36.288Z,13.00
2019-03-27T03:10:36.271Z,11.90
2019-03-27T03:11:36.266Z,13.40
2019-03-27T03:12:36.275Z,13.80
2019-03-27T03:13:36.234Z,12.40
2019-03-27T03:14:36.219Z,13.50
2019-03-27T03:15:36.209Z,14.30
2019-03-27T03:16:42.699Z,12.30
2019-03-27T03:17:37.208Z,11.20
2019-03-27T03:18:36.215Z,12.50
2019-03-27T03:19:36.168Z,12.00
2019-03-27T03:20:36.163Z,12.60
2019-03-27T03:21:36.166Z,11.40
2019-03-27T03:22:36.131Z,12.20
2019-03-27T03:23:36.151Z,12.60
2019-03-27T03:24:36.120Z,11.60
2019-03-27T03:25:36.099Z,11.60
2019-03-27T03:26:36.097Z,14.20
2019-03-27T03:27:36.086Z,13.20
2019-03-27T03:28:36.103Z,12.30
2019-03-27T03:29:36.064Z,12.10
2019-03-27T03:30:36.090Z,12.70
2019-03-27T03:31:36.038Z,13.00
2019-03-27T03:32:36.035Z,11.80
2019-03-27T03:33:36.045Z,13.90
2019-03-27T03:34:36.015Z,12.20
2019-03-27T03:35:36.017Z,10.00
2019-03-27T03:36:35.986Z,13.40
2019-03-27T03:37:35.969Z,14.20
2019-03-27T03:38:36.007Z,16.70
2019-03-27T03:39:35.951Z,13.10
2019-03-27T03:40:35.950Z,12.60
2019-03-27T03:41:35.928Z,11.80
2019-03-27T03:42:35.923Z,14.20
2019-03-27T03:43:35.906Z,14.60
2019-03-27T03:44:35.934Z,10.70
2019-03-27T03:45:35.904Z,14.00
2019-03-27T03:46:35.870Z,12.10
2019-03-27T03:47:35.992Z,12.80
2019-03-27T03:48:35.848Z,12.00
2019-03-27T03:49:35.873Z,11.90
2019-03-27T03:50:35.842Z,11.40
2019-03-27T03:51:35.842Z,11.50
2019-03-27T03:52:35.806Z,11.90
2019-03-27T03:53:35.799Z,10.20
2019-03-27T03:54:35.783Z,9.90
2019-03-27T03:55:35.804Z,12.60
2019-03-27T03:56:35.773Z,12.30
2019-03-27T03:57:35.776Z,12.20
2019-03-27T03:58:35.751Z,11.20
2019-03-27T03:59:35.745Z,12.50
2019-03-27T04:00:35.757Z,11.00
2019-03-27T04:01:35.711Z,10.60
2019-03-27T04:02:35.702Z,12.10
2019-03-27T04:03:35.698Z,11.30
2019-03-27T04:04:35.681Z,12.00
2019-03-27T04:05:35.694Z,13.40
2019-03-27T04:06:35.682Z,11.90
2019-03-27T04:07:35.685Z,13.30
2019-03-27T04:08:35.640Z,12.40
2019-03-27T04:09:35.638Z,13.10
2019-03-27T04:10:35.616Z,9.90
2019-03-27T04:11:35.649Z,13.80
2019-03-27T04:12:35.614Z,13.50
2019-03-27T04:13:35.601Z,12.80
2019-03-27T04:14:35.592Z,12.60
2019-03-27T04:15:35.577Z,11.80
2019-03-27T04:16:35.591Z,12.60
2019-03-27T04:17:35.555Z,13.40
2019-03-27T04:18:35.537Z,13.30
2019-03-27T04:19:35.509Z,10.90
2019-03-27T04:20:35.540Z,12.10
2019-03-27T04:21:35.496Z,12.50
2019-03-27T04:22:35.526Z,14.40
2019-03-27T04:23:35.468Z,12.90
2019-03-27T04:24:35.469Z,14.90
2019-03-27T04:26:00.342Z,13.60
2019-03-27T04:26:36.436Z,12.80
2019-03-27T04:27:35.443Z,13.00
2019-03-27T04:28:35.488Z,13.30
2019-03-27T04:29:35.406Z,11.40
2019-03-27T04:30:35.439Z,11.70
2019-03-27T04:31:35.391Z,13.90
2019-03-27T04:32:35.391Z,12.50
2019-03-27T04:33:35.396Z,14.90
2019-03-27T04:34:35.353Z,15.00
2019-03-27T04:35:35.359Z,12.30
2019-03-27T04:36:35.337Z,12.60
2019-03-27T04:37:35.321Z,16.90
2019-03-27T04:38:35.331Z,14.80
2019-03-27T04:39:35.314Z,14.60
2019-03-27T04:40:35.285Z,12.50
2019-03-27T04:41:35.275Z,14.40
2019-03-27T04:42:35.268Z,13.10
2019-03-27T04:43:35.259Z,15.20
2019-03-27T04:44:35.268Z,14.90
2019-03-27T04:45:35.242Z,15.50
2019-03-27T04:46:35.223Z,9.50
2019-03-27T04:47:35.208Z,14.40
2019-03-27T04:48:35.207Z,15.40
2019-03-27T04:49:35.196Z,13.40
2019-03-27T04:50:35.208Z,14.90
2019-03-27T04:51:35.167Z,12.20
2019-03-27T04:52:35.151Z,12.00
2019-03-27T04:53:35.143Z,13.80
2019-03-27T04:54:35.129Z,14.20
2019-03-27T04:55:35.169Z,11.20
2019-03-27T04:56:35.112Z,12.10
2019-03-27T04:57:35.117Z,14.20
2019-03-27T04:58:35.108Z,14.70
2019-03-27T04:59:35.074Z,13.80
2019-03-27T05:00:35.065Z,13.20
2019-03-27T05:01:35.079Z,11.90
2019-03-27T05:02:35.055Z,13.90
2019-03-27T05:03:35.031Z,13.60
2019-03-27T05:04:35.027Z,11.90
2019-03-27T05:05:35.023Z,13.20
2019-03-27T05:06:35.034Z,14.60
2019-03-27T05:07:34.990Z,15.00
2019-03-27T05:08:34.995Z,14.00
2019-03-27T05:09:34.965Z,12.90
2019-03-27T05:10:34.961Z,11.70
2019-03-27T05:11:34.985Z,12.60
2019-03-27T05:12:38.342Z,13.80
2019-03-27T05:13:34.931Z,13.10
2019-03-27T05:14:34.919Z,15.80
2019-03-27T05:15:34.900Z,16.80
2019-03-27T05:16:34.907Z,16.10
2019-03-27T05:17:45.057Z,12.90
2019-03-27T05:18:35.867Z,13.30
2019-03-27T05:19:34.860Z,14.00
2019-03-27T05:20:34.893Z,14.30
2019-03-27T05:21:34.841Z,13.90
2019-03-27T05:22:34.861Z,15.90
2019-03-27T05:23:34.813Z,15.90
2019-03-27T05:24:34.804Z,16.50
2019-03-27T05:25:34.793Z,13.10
2019-03-27T05:26:34.789Z,13.20
2019-03-27T05:27:36.307Z,13.50
2019-03-27T05:28:34.815Z,13.60
2019-03-27T05:29:34.763Z,14.00
2019-03-27T05:30:34.740Z,13.90
2019-03-27T05:31:34.727Z,14.40
2019-03-27T05:32:34.716Z,14.60
2019-03-27T05:33:34.737Z,13.60
2019-03-27T05:34:34.691Z,15.90
2019-03-27T05:35:34.683Z,16.30
2019-03-27T05:36:34.671Z,17.30
2019-03-27T05:37:34.660Z,17.10
2019-03-27T05:38:34.670Z,15.20
2019-03-27T05:39:34.666Z,16.40
2019-03-27T05:40:34.625Z,16.60
2019-03-27T05:41:34.615Z,15.70
2019-03-27T05:42:34.606Z,14.00
2019-03-27T05:43:34.591Z,16.10
2019-03-27T05:44:34.616Z,18.80
2019-03-27T05:45:34.586Z,15.50
2019-03-27T05:46:34.570Z,16.70
2019-03-27T05:47:34.559Z,16.10
2019-03-27T05:48:34.541Z,17.20
2019-03-27T05:49:34.531Z,18.50
2019-03-27T05:50:34.539Z,19.90
2019-03-27T05:51:34.506Z,15.90
2019-03-27T05:52:34.499Z,19.00
2019-03-27T05:53:34.518Z,18.30
2019-03-27T05:54:34.477Z,16.60
2019-03-27T05:55:34.503Z,17.00
2019-03-27T05:56:34.456Z,19.90
2019-03-27T05:57:34.440Z,17.90
2019-03-27T05:58:34.435Z,21.10
2019-03-27T05:59:34.433Z,18.20
2019-03-27T06:00:34.409Z,22.90
2019-03-27T06:01:34.422Z,21.00
2019-03-27T06:02:34.397Z,19.80
2019-03-27T06:03:34.376Z,21.40
2019-03-27T06:04:34.370Z,22.90
2019-03-27T06:05:34.354Z,19.90
2019-03-27T06:06:34.376Z,20.10
2019-03-27T06:07:34.333Z,19.60
2019-03-27T06:08:34.342Z,17.50
2019-03-27T06:09:34.309Z,21.80
2019-03-27T06:10:34.301Z,20.60
2019-03-27T06:11:34.305Z,21.80
2019-03-27T06:12:34.302Z,20.10
2019-03-27T06:13:34.270Z,18.30
2019-03-27T06:14:34.256Z,18.10
2019-03-27T06:15:34.264Z,20.30
2019-03-27T06:16:34.241Z,19.20
2019-03-27T06:17:34.263Z,21.70
2019-03-27T06:18:34.213Z,20.20
2019-03-27T06:19:34.208Z,21.50
2019-03-27T06:20:34.968Z,20.20
2019-03-27T06:21:34.179Z,20.80
2019-03-27T06:22:34.171Z,20.10
2019-03-27T06:23:34.181Z,16.50
2019-03-27T06:24:34.150Z,19.30
2019-03-27T06:25:34.153Z,18.70
2019-03-27T06:26:34.123Z,17.90
2019-03-27T06:27:34.114Z,19.30
2019-03-27T06:28:34.150Z,17.30
2019-03-27T06:29:34.091Z,21.30
2019-03-27T06:30:34.085Z,18.10
2019-03-27T06:31:34.083Z,23.30
2019-03-27T06:32:34.071Z,19.70
2019-03-27T06:33:34.055Z,18.00
2019-03-27T06:34:34.055Z,20.30
2019-03-27T06:35:34.027Z,20.30
2019-03-27T06:36:34.017Z,18.40
2019-03-27T06:37:34.026Z,18.50
2019-03-27T06:38:33.996Z,18.70
2019-03-27T06:39:34.011Z,20.60
2019-03-27T06:40:33.970Z,19.20
2019-03-27T06:41:33.967Z,18.80
2019-03-27T06:42:33.945Z,21.80
2019-03-27T06:43:33.961Z,21.70
2019-03-27T06:44:33.957Z,18.50
2019-03-27T06:45:33.916Z,23.10
2019-03-27T06:46:33.919Z,20.40
2019-03-27T06:47:33.917Z,20.00
2019-03-27T06:48:33.882Z,20.20
2019-03-27T06:49:33.873Z,20.70
2019-03-27T06:50:33.878Z,21.50
2019-03-27T06:51:40.050Z,20.30
2019-03-27T06:52:34.844Z,17.20
2019-03-27T06:53:33.852Z,18.10
2019-03-27T06:54:33.814Z,18.50
2019-03-27T06:55:33.843Z,19.30
2019-03-27T06:56:33.808Z,18.00
2019-03-27T06:57:33.790Z,19.50
2019-03-27T06:58:33.770Z,19.20
2019-03-27T06:59:33.761Z,18.70
2019-03-27T07:00:33.782Z,16.30
2019-03-27T07:01:33.745Z,19.00
2019-03-27T07:02:33.746Z,19.80
2019-03-27T07:03:33.746Z,17.80
2019-03-27T07:04:33.702Z,18.20
2019-03-27T07:05:33.701Z,19.00
2019-03-27T07:06:33.688Z,16.20
2019-03-27T07:07:33.727Z,16.80
2019-03-27T07:08:33.661Z,17.10
2019-03-27T07:09:33.668Z,18.80
2019-03-27T07:10:33.655Z,16.10
2019-03-27T07:11:33.634Z,16.30
2019-03-27T07:12:33.620Z,17.60
2019-03-27T07:13:33.610Z,16.20
2019-03-27T07:14:33.630Z,16.40
2019-03-27T07:15:35.766Z,17.10
2019-03-27T07:16:33.576Z,16.60
2019-03-27T07:17:33.561Z,16.20
2019-03-27T07:18:39.930Z,17.80
2019-03-27T07:19:34.568Z,16.10
2019-03-27T07:20:33.541Z,17.60
2019-03-27T07:21:33.524Z,16.80
2019-03-27T07:22:33.508Z,19.00
2019-03-27T07:23:33.504Z,15.10
2019-03-27T07:24:33.504Z,18.00
2019-03-27T07:25:33.520Z,14.60
2019-03-27T07:26:33.463Z,15.60
2019-03-27T07:27:33.454Z,20.90
2019-03-27T07:28:33.439Z,15.50
2019-03-27T07:29:33.475Z,17.80
2019-03-27T07:30:33.420Z,19.80
2019-03-27T07:31:33.410Z,18.20
2019-03-27T07:32:33.396Z,15.70
2019-03-27T07:33:33.391Z,17.40
2019-03-27T07:34:33.407Z,17.10
2019-03-27T07:35:33.389Z,15.80
2019-03-27T07:36:33.367Z,18.60
2019-03-27T07:37:33.345Z,19.00
2019-03-27T07:38:33.334Z,17.50
2019-03-27T07:39:33.378Z,18.30
2019-03-27T07:40:33.310Z,17.00
2019-03-27T07:41:33.302Z,17.40
2019-03-27T07:42:33.293Z,19.40
2019-03-27T07:43:33.296Z,17.20
2019-03-27T07:44:33.265Z,18.20
2019-03-27T07:45:33.272Z,16.80
2019-03-27T07:46:33.245Z,19.30
2019-03-27T07:47:33.230Z,16.70
2019-03-27T07:48:33.222Z,17.40
2019-03-27T07:49:33.209Z,17.60
2019-03-27T07:50:33.235Z,17.60
2019-03-27T07:51:33.188Z,16.10
2019-03-27T07:52:33.174Z,18.20
2019-03-27T07:53:33.161Z,16.50
2019-03-27T07:54:33.151Z,17.10
2019-03-27T07:55:33.148Z,17.20
2019-03-27T07:56:33.152Z,15.20
2019-03-27T07:57:33.121Z,16.80
2019-03-27T07:58:33.120Z,19.00
2019-03-27T07:59:33.100Z,19.40
2019-03-27T08:00:33.086Z,14.80
2019-03-27T08:01:33.131Z,16.60
2019-03-27T08:02:33.072Z,16.40
2019-03-27T08:03:33.053Z,17.20
2019-03-27T08:04:33.042Z,16.80
2019-03-27T08:05:33.030Z,16.00
2019-03-27T08:06:33.026Z,14.80
2019-03-27T08:07:33.042Z,18.40
2019-03-27T08:08:33.002Z,16.40
2019-03-27T08:09:32.998Z,18.10
2019-03-27T08:10:32.976Z,17.80
2019-03-27T08:11:33.005Z,19.90
2019-03-27T08:12:32.996Z,17.10
2019-03-27T08:13:32.943Z,18.80
2019-03-27T08:14:32.931Z,17.20
2019-03-27T08:15:32.953Z,16.20
2019-03-27T08:16:32.918Z,17.20
2019-03-27T08:17:32.900Z,16.70
2019-03-27T08:18:32.903Z,18.10
2019-03-27T08:19:32.876Z,16.00
2019-03-27T08:20:32.863Z,16.70
2019-03-27T08:21:32.865Z,14.90
2019-03-27T08:22:32.862Z,15.70
2019-03-27T08:23:32.865Z,16.20
2019-03-27T08:24:32.847Z,19.10
2019-03-27T08:25:32.814Z,17.10
2019-03-27T08:26:32.797Z,16.30
2019-03-27T08:27:32.818Z,17.80
2019-03-27T08:28:32.809Z,16.70
2019-03-27T08:29:32.772Z,17.00
2019-03-27T08:30:32.772Z,17.60
2019-03-27T08:31:32.745Z,14.90
2019-03-27T08:32:32.737Z,14.20
2019-03-27T08:33:32.772Z,15.70
2019-03-27T08:34:32.739Z,18.20
2019-03-27T08:35:32.700Z,13.60
2019-03-27T08:36:32.693Z,17.30
2019-03-27T08:37:32.676Z,16.90
2019-03-27T08:38:32.665Z,15.60
2019-03-27T08:39:32.685Z,16.00
2019-03-27T08:40:32.667Z,15.10
2019-03-27T08:41:32.660Z,14.10
2019-03-27T08:42:32.639Z,15.50
2019-03-27T08:43:32.635Z,14.60
2019-03-27T08:44:32.670Z,16.30
2019-03-27T08:45:32.590Z,15.40
2019-03-27T08:46:32.582Z,17.90
2019-03-27T08:47:32.568Z,16.10
2019-03-27T08:48:32.568Z,15.90
2019-03-27T08:49:32.547Z,15.50
2019-03-27T08:50:32.575Z,16.20
2019-03-27T08:51:32.529Z,17.10
2019-03-27T08:52:32.515Z,16.20
2019-03-27T08:53:32.511Z,14.80
2019-03-27T08:54:32.520Z,16.50
2019-03-27T08:55:32.546Z,17.40
2019-03-27T08:56:32.474Z,14.30
2019-03-27T08:57:32.457Z,18.80
2019-03-27T08:58:32.460Z,17.90
2019-03-27T08:59:32.439Z,14.80
2019-03-27T09:00:32.461Z,16.00
2019-03-27T09:01:32.422Z,15.00
2019-03-27T09:02:32.430Z,19.40
2019-03-27T09:03:32.392Z,14.80
2019-03-27T09:04:32.385Z,14.70
2019-03-27T09:05:32.397Z,16.10
2019-03-27T09:06:33.996Z,16.80
2019-03-27T09:07:32.354Z,16.90
2019-03-27T09:08:32.371Z,16.30
2019-03-27T09:09:32.336Z,16.90
2019-03-27T09:10:32.344Z,16.50
2019-03-27T09:11:32.342Z,16.30
2019-03-27T09:12:32.379Z,16.10
2019-03-27T09:13:32.297Z,15.20
2019-03-27T09:14:32.272Z,16.40
2019-03-27T09:15:32.300Z,17.30
2019-03-27T09:16:32.254Z,19.10
2019-03-27T09:17:32.242Z,17.40
2019-03-27T09:18:32.229Z,16.40
2019-03-27T09:19:35.947Z,18.10
2019-03-27T09:20:32.250Z,14.70
2019-03-27T09:21:32.200Z,15.50
2019-03-27T09:22:32.198Z,16.40
2019-03-27T09:23:32.197Z,18.30
2019-03-27T09:24:32.168Z,15.40
2019-03-27T09:25:32.169Z,17.60
2019-03-27T09:26:32.139Z,17.50
2019-03-27T09:27:32.133Z,16.30
2019-03-27T09:28:32.160Z,17.80
2019-03-27T09:29:32.117Z,16.70
2019-03-27T09:30:32.134Z,14.50
2019-03-27T09:31:44.164Z,15.30
2019-03-27T09:32:33.073Z,15.00
2019-03-27T09:33:32.066Z,16.70
2019-03-27T09:34:32.057Z,15.20
2019-03-27T09:35:32.161Z,16.40
2019-03-27T09:36:32.064Z,16.90
2019-03-27T09:37:32.020Z,15.10
2019-03-27T09:38:32.046Z,15.60
2019-03-27T09:39:32.011Z,18.10
2019-03-27T09:40:31.988Z,14.60
2019-03-27T09:41:32.048Z,15.00
2019-03-27T09:42:31.966Z,16.30
2019-03-27T09:43:31.969Z,15.40
2019-03-27T09:44:31.952Z,15.10
2019-03-27T09:45:31.939Z,14.90
2019-03-27T09:46:31.927Z,14.80
2019-03-27T09:47:34.684Z,14.30
2019-03-27T09:48:31.900Z,15.70
2019-03-27T09:49:31.890Z,14.90
2019-03-27T09:50:31.890Z,14.10
2019-03-27T09:51:31.885Z,14.70
2019-03-27T09:52:31.886Z,15.10
2019-03-27T09:53:31.849Z,15.10
2019-03-27T09:54:31.847Z,14.00
2019-03-27T09:55:31.824Z,14.50
2019-03-27T09:56:31.841Z,14.50
2019-03-27T09:57:31.826Z,14.90
2019-03-27T09:58:31.790Z,14.70
2019-03-27T09:59:31.780Z,15.70
2019-03-27T10:00:31.772Z,14.00
2019-03-27T10:01:31.756Z,14.50
2019-03-27T10:02:31.774Z,12.90
2019-03-27T10:03:31.748Z,12.90
2019-03-27T10:04:31.738Z,13.60
2019-03-27T10:05:31.740Z,13.50
2019-03-27T10:06:31.706Z,12.70
2019-03-27T10:07:31.697Z,13.40
2019-03-27T10:08:31.685Z,11.80
2019-03-27T10:09:31.840Z,14.80
2019-03-27T10:10:31.695Z,13.30
2019-03-27T10:11:31.681Z,15.00
2019-03-27T10:12:31.664Z,12.60
2019-03-27T10:13:31.629Z,13.10
2019-03-27T10:14:31.618Z,14.00
2019-03-27T10:15:31.619Z,13.00
2019-03-27T10:16:31.635Z,13.60
2019-03-27T10:17:31.586Z,13.60
2019-03-27T10:18:31.581Z,12.90
2019-03-27T10:19:31.564Z,11.80
2019-03-27T10:20:31.550Z,13.40
2019-03-27T10:21:32.777Z,12.20
2019-03-27T10:22:31.603Z,12.20
2019-03-27T10:23:31.520Z,12.70
2019-03-27T10:24:31.514Z,13.20
2019-03-27T10:25:31.523Z,11.90
2019-03-27T10:26:31.493Z,11.80
2019-03-27T10:27:31.614Z,14.80
2019-03-27T10:28:31.463Z,11.90
2019-03-27T10:29:31.557Z,12.00
2019-03-27T10:30:31.477Z,12.20
2019-03-27T10:31:31.433Z,12.00
2019-03-27T10:32:31.424Z,13.20
2019-03-27T10:33:31.431Z,11.30
2019-03-27T10:34:31.442Z,12.80
2019-03-27T10:35:31.482Z,13.60
2019-03-27T10:36:31.420Z,12.30
2019-03-27T10:37:31.371Z,12.30
2019-03-27T10:38:31.354Z,14.50
2019-03-27T10:39:31.362Z,12.50
2019-03-27T10:40:31.342Z,15.20
2019-03-27T10:41:31.355Z,12.30
2019-03-27T10:42:31.314Z,13.30
2019-03-27T10:43:31.302Z,13.90
2019-03-27T10:44:31.298Z,10.60
2019-03-27T10:45:31.348Z,13.90
2019-03-27T10:46:31.271Z,11.20
2019-03-27T10:47:31.301Z,11.30
2019-03-27T10:48:31.250Z,10.00
2019-03-27T10:49:34.226Z,11.50
2019-03-27T10:50:31.254Z,10.60
2019-03-27T10:51:31.212Z,11.40
2019-03-27T10:52:31.207Z,11.80
2019-03-27T10:53:31.197Z,10.00
2019-03-27T10:54:31.204Z,12.00
2019-03-27T10:55:34.374Z,13.30
2019-03-27T10:56:31.176Z,14.30
2019-03-27T10:57:31.175Z,11.10
2019-03-27T10:58:31.182Z,13.50
2019-03-27T10:59:31.142Z,11.70
2019-03-27T11:00:31.165Z,10.80
2019-03-27T11:01:31.108Z,11.50
2019-03-27T11:02:31.105Z,12.20
2019-03-27T11:03:31.093Z,12.00
2019-03-27T11:04:31.072Z,12.60
2019-03-27T11:05:31.136Z,11.80
2019-03-27T11:06:31.057Z,12.70
2019-03-27T11:07:31.056Z,12.40
2019-03-27T11:08:31.054Z,13.20
2019-03-27T11:09:31.030Z,10.80
2019-03-27T11:10:31.084Z,8.80
2019-03-27T11:11:31.010Z,12.00
2019-03-27T11:12:31.011Z,10.30
2019-03-27T11:13:34.178Z,11.60
2019-03-27T11:14:37.875Z,11.90
2019-03-27T11:15:31.997Z,11.50
2019-03-27T11:16:31.005Z,11.10
2019-03-27T11:17:30.969Z,10.30
2019-03-27T11:18:30.943Z,10.20
2019-03-27T11:19:33.398Z,11.00
2019-03-27T11:20:31.714Z,9.40
2019-03-27T11:21:30.906Z,7.80
2019-03-27T11:22:30.885Z,9.40
2019-03-27T11:23:30.862Z,8.70
2019-03-27T11:24:30.855Z,9.10
2019-03-27T11:25:33.053Z,8.40
2019-03-27T11:26:30.853Z,8.70
2019-03-27T11:27:30.820Z,10.80
2019-03-27T11:28:30.814Z,8.80
2019-03-27T11:29:30.802Z,8.00
2019-03-27T11:30:30.797Z,7.80
2019-03-27T11:31:30.841Z,9.00
2019-03-27T11:32:30.771Z,8.80
2019-03-27T11:33:30.760Z,9.00
2019-03-27T11:34:30.746Z,9.30
2019-03-27T11:35:30.742Z,9.60
2019-03-27T11:36:30.746Z,9.70
2019-03-27T11:37:30.740Z,10.50
2019-03-27T11:38:30.699Z,8.90
2019-03-27T11:39:30.693Z,10.10
2019-03-27T11:40:30.699Z,10.20
2019-03-27T11:41:30.668Z,9.60
2019-03-27T11:42:30.790Z,9.40
2019-03-27T11:43:30.654Z,11.20
2019-03-27T11:44:30.644Z,10.10
2019-03-27T11:45:30.632Z,9.80
2019-03-27T11:46:32.258Z,10.20
2019-03-27T11:47:30.606Z,8.00
2019-03-27T11:48:30.611Z,8.80
2019-03-27T11:49:30.603Z,9.10
2019-03-27T11:50:43.754Z,9.90
2019-03-27T11:51:31.574Z,9.30
2019-03-27T11:52:30.549Z,8.80
2019-03-27T11:53:30.541Z,10.60
2019-03-27T11:54:30.542Z,9.60
2019-03-27T11:55:30.523Z,8.00
2019-03-27T11:56:30.546Z,9.80
2019-03-27T11:57:30.495Z,11.00
2019-03-27T11:58:30.495Z,8.90
2019-03-27T11:59:30.475Z,9.70
2019-03-27T12:00:30.462Z,9.60
2019-03-27T12:01:40.466Z,10.20
2019-03-27T12:02:31.522Z,9.10
2019-03-27T12:03:30.461Z,10.10
2019-03-27T12:04:30.421Z,9.50
2019-03-27T12:05:30.406Z,9.20
2019-03-27T12:06:30.417Z,10.00
2019-03-27T12:07:30.407Z,9.70
2019-03-27T12:08:30.384Z,9.40
2019-03-27T12:09:30.388Z,7.60
2019-03-27T12:10:30.370Z,9.40
2019-03-27T12:11:30.373Z,7.90
2019-03-27T12:12:30.347Z,9.30
2019-03-27T12:13:30.329Z,9.40
2019-03-27T12:14:30.308Z,9.00
2019-03-27T12:15:30.313Z,8.00
2019-03-27T12:16:30.304Z,8.40
2019-03-27T12:17:30.288Z,8.60
2019-03-27T12:18:32.098Z,8.00
2019-03-27T12:19:30.271Z,8.10
2019-03-27T12:20:30.273Z,7.90
2019-03-27T12:21:30.307Z,6.90
2019-03-27T12:22:30.273Z,8.60
2019-03-27T12:23:30.226Z,7.80
2019-03-27T12:24:30.207Z,7.70
2019-03-27T12:25:30.198Z,8.20
2019-03-27T12:26:30.229Z,7.70
2019-03-27T12:27:30.178Z,8.90
2019-03-27T12:28:30.214Z,10.00
2019-03-27T12:29:30.169Z,8.40
2019-03-27T12:30:30.152Z,8.60
2019-03-27T12:31:30.173Z,7.90
2019-03-27T12:32:30.121Z,9.70
2019-03-27T12:33:30.109Z,9.40
2019-03-27T12:34:30.090Z,7.70
2019-03-27T12:35:30.095Z,7.90
2019-03-27T12:36:30.111Z,8.00
2019-03-27T12:37:30.091Z,7.60
2019-03-27T12:38:30.055Z,8.20
2019-03-27T12:39:30.034Z,7.80
2019-03-27T12:40:30.033Z,8.80
2019-03-27T12:41:32.873Z,8.70
2019-03-27T12:42:30.051Z,8.30
2019-03-27T12:43:30.044Z,9.30
2019-03-27T12:44:30.003Z,9.60
2019-03-27T12:45:29.976Z,8.50
2019-03-27T12:46:29.973Z,7.80
2019-03-27T12:47:29.961Z,8.80
2019-03-27T12:48:29.994Z,8.60
2019-03-27T12:49:29.949Z,7.70
2019-03-27T12:50:29.926Z,8.10
2019-03-27T12:51:29.923Z,7.20
2019-03-27T12:52:29.889Z,8.10
2019-03-27T12:53:29.947Z,8.60
2019-03-27T12:54:29.910Z,7.80
2019-03-27T12:55:29.877Z,8.70
2019-03-27T12:56:29.851Z,9.20